sensor_id;sensor_type;location;lat;lon;timestamp;pressure;altitude;pressure_sealevel;temperature;humidity
4326;BME280;58429;49.826;10.880;2023-01-28T00:00:09;99281;;;1.5;80.92
4326;BME280;58429;49.826;10.880;2023-01-28T00:01:09;99279;;;1.51;80.94
4326;BME280;58429;49.826;10.880;2023-01-28T00:02:10;99278;;;1.51;80.95
4326;BME280;58429;49.826;10.880;2023-01-28T00:03:08;99279;;;1.52;80.99
4326;BME280;58429;49.826;10.880;2023-01-28T00:04:08;99283;;;1.52;81.04
4326;BME280;58429;49.826;10.880;2023-01-28T00:05:09;99276;;;1.52;81.03
4326;BME280;58429;49.826;10.880;2023-01-28T00:06:09;99281;;;1.54;81.18
4326;BME280;58429;49.826;10.880;2023-01-28T00:07:08;99279;;;1.51;81.36
4326;BME280;58429;49.826;10.880;2023-01-28T00:08:08;99279;;;1.48;81.34
4326;BME280;58429;49.826;10.880;2023-01-28T00:09:08;99280;;;1.49;81.27
4326;BME280;58429;49.826;10.880;2023-01-28T00:10:09;99279;;;1.5;81.42
4326;BME280;58429;49.826;10.880;2023-01-28T00:11:09;99276;;;1.47;81.44
4326;BME280;58429;49.826;10.880;2023-01-28T00:12:08;99281;;;1.48;81.43
4326;BME280;58429;49.826;10.880;2023-01-28T00:13:09;99283;;;1.48;81.37
4326;BME280;58429;49.826;10.880;2023-01-28T00:14:09;99284;;;1.5;81.36
4326;BME280;58429;49.826;10.880;2023-01-28T00:15:09;99278;;;1.53;81.4
4326;BME280;58429;49.826;10.880;2023-01-28T00:16:08;99277;;;1.49;81.35
4326;BME280;58429;49.826;10.880;2023-01-28T00:17:08;99275;;;1.51;81.36
4326;BME280;58429;49.826;10.880;2023-01-28T00:18:08;99269;;;1.51;81.38
4326;BME280;58429;49.826;10.880;2023-01-28T00:19:08;99273;;;1.5;81.35
4326;BME280;58429;49.826;10.880;2023-01-28T00:20:09;99277;;;1.52;81.32
4326;BME280;58429;49.826;10.880;2023-01-28T00:21:09;99272;;;1.54;81.34
4326;BME280;58429;49.826;10.880;2023-01-28T00:22:08;99271;;;1.48;81.47
4326;BME280;58429;49.826;10.880;2023-01-28T00:23:08;99274;;;1.54;81.47
4326;BME280;58429;49.826;10.880;2023-01-28T00:24:08;99268;;;1.5;81.4
4326;BME280;58429;49.826;10.880;2023-01-28T00:25:08;99269;;;1.51;81.39
4326;BME280;58429;49.826;10.880;2023-01-28T00:26:09;99272;;;1.51;81.42
4326;BME280;58429;49.826;10.880;2023-01-28T00:27:08;99272;;;1.5;81.42
4326;BME280;58429;49.826;10.880;2023-01-28T00:28:08;99272;;;1.53;81.46
4326;BME280;58429;49.826;10.880;2023-01-28T00:29:08;99276;;;1.52;81.51
4326;BME280;58429;49.826;10.880;2023-01-28T00:30:09;99273;;;1.46;81.61
4326;BME280;58429;49.826;10.880;2023-01-28T00:31:09;99274;;;1.5;81.62
4326;BME280;58429;49.826;10.880;2023-01-28T00:32:08;99273;;;1.47;81.55
4326;BME280;58429;49.826;10.880;2023-01-28T00:33:08;99269;;;1.48;81.53
4326;BME280;58429;49.826;10.880;2023-01-28T00:34:08;99268;;;1.51;81.52
4326;BME280;58429;49.826;10.880;2023-01-28T00:35:08;99277;;;1.51;81.52
4326;BME280;58429;49.826;10.880;2023-01-28T00:36:08;99270;;;1.52;81.53
4326;BME280;58429;49.826;10.880;2023-01-28T00:37:08;99275;;;1.52;81.54
4326;BME280;58429;49.826;10.880;2023-01-28T00:38:09;99274;;;1.57;81.51
4326;BME280;58429;49.826;10.880;2023-01-28T00:39:09;99273;;;1.55;81.49
4326;BME280;58429;49.826;10.880;2023-01-28T00:40:09;99274;;;1.52;81.45
4326;BME280;58429;49.826;10.880;2023-01-28T00:41:09;99269;;;1.57;81.46
4326;BME280;58429;49.826;10.880;2023-01-28T00:42:08;99271;;;1.56;81.48
4326;BME280;58429;49.826;10.880;2023-01-28T00:43:08;99275;;;1.56;81.55
4326;BME280;58429;49.826;10.880;2023-01-28T00:44:08;99273;;;1.54;81.5
4326;BME280;58429;49.826;10.880;2023-01-28T00:45:09;99271;;;1.57;81.47
4326;BME280;58429;49.826;10.880;2023-01-28T00:46:09;99267;;;1.55;81.46
4326;BME280;58429;49.826;10.880;2023-01-28T00:47:08;99274;;;1.58;81.44
4326;BME280;58429;49.826;10.880;2023-01-28T00:48:08;99274;;;1.6;81.46
4326;BME280;58429;49.826;10.880;2023-01-28T00:49:08;99275;;;1.56;81.5
4326;BME280;58429;49.826;10.880;2023-01-28T00:50:09;99276;;;1.59;81.53
4326;BME280;58429;49.826;10.880;2023-01-28T00:51:09;99274;;;1.59;81.55
4326;BME280;58429;49.826;10.880;2023-01-28T00:52:08;99275;;;1.59;81.6
4326;BME280;58429;49.826;10.880;2023-01-28T00:53:08;99265;;;1.57;81.66
4326;BME280;58429;49.826;10.880;2023-01-28T00:54:09;99266;;;1.57;81.65
4326;BME280;58429;49.826;10.880;2023-01-28T00:55:08;99262;;;1.58;81.62
4326;BME280;58429;49.826;10.880;2023-01-28T00:56:10;99271;;;1.54;81.68
4326;BME280;58429;49.826;10.880;2023-01-28T00:57:08;99271;;;1.58;81.69
4326;BME280;58429;49.826;10.880;2023-01-28T00:58:08;99271;;;1.59;81.67
4326;BME280;58429;49.826;10.880;2023-01-28T00:59:08;99271;;;1.58;81.65
4326;BME280;58429;49.826;10.880;2023-01-28T01:00:09;99271;;;1.57;81.62
4326;BME280;58429;49.826;10.880;2023-01-28T01:01:09;99270;;;1.59;81.62
4326;BME280;58429;49.826;10.880;2023-01-28T01:02:08;99277;;;1.56;81.63
4326;BME280;58429;49.826;10.880;2023-01-28T01:03:09;99272;;;1.6;81.64
4326;BME280;58429;49.826;10.880;2023-01-28T01:04:08;99277;;;1.57;81.62
4326;BME280;58429;49.826;10.880;2023-01-28T01:05:08;99271;;;1.59;81.65
4326;BME280;58429;49.826;10.880;2023-01-28T01:06:08;99270;;;1.57;81.77
4326;BME280;58429;49.826;10.880;2023-01-28T01:07:08;99268;;;1.57;81.77
4326;BME280;58429;49.826;10.880;2023-01-28T01:08:08;99270;;;1.59;81.75
4326;BME280;58429;49.826;10.880;2023-01-28T01:09:09;99274;;;1.56;81.79
4326;BME280;58429;49.826;10.880;2023-01-28T01:10:09;99276;;;1.57;81.74
4326;BME280;58429;49.826;10.880;2023-01-28T01:11:10;99270;;;1.59;81.73
4326;BME280;58429;49.826;10.880;2023-01-28T01:12:08;99278;;;1.56;81.78
4326;BME280;58429;49.826;10.880;2023-01-28T01:13:08;99274;;;1.56;81.8
4326;BME280;58429;49.826;10.880;2023-01-28T01:14:08;99273;;;1.58;81.79
4326;BME280;58429;49.826;10.880;2023-01-28T01:15:09;99274;;;1.59;81.79
4326;BME280;58429;49.826;10.880;2023-01-28T01:16:09;99278;;;1.59;81.79
4326;BME280;58429;49.826;10.880;2023-01-28T01:17:08;99271;;;1.56;81.8
4326;BME280;58429;49.826;10.880;2023-01-28T01:18:08;99273;;;1.58;81.78
4326;BME280;58429;49.826;10.880;2023-01-28T01:19:09;99275;;;1.61;81.79
4326;BME280;58429;49.826;10.880;2023-01-28T01:20:11;99270;;;1.61;81.75
4326;BME280;58429;49.826;10.880;2023-01-28T01:21:09;99275;;;1.59;81.71
4326;BME280;58429;49.826;10.880;2023-01-28T01:22:08;99270;;;1.59;81.7
4326;BME280;58429;49.826;10.880;2023-01-28T01:23:09;99273;;;1.6;81.72
4326;BME280;58429;49.826;10.880;2023-01-28T01:24:08;99281;;;1.58;81.73
4326;BME280;58429;49.826;10.880;2023-01-28T01:25:09;99283;;;1.6;81.75
4326;BME280;58429;49.826;10.880;2023-01-28T01:26:08;99277;;;1.62;81.8
4326;BME280;58429;49.826;10.880;2023-01-28T01:27:08;99279;;;1.6;81.78
4326;BME280;58429;49.826;10.880;2023-01-28T01:28:08;99286;;;1.62;81.75
4326;BME280;58429;49.826;10.880;2023-01-28T01:29:08;99281;;;1.59;81.73
4326;BME280;58429;49.826;10.880;2023-01-28T01:30:09;99275;;;1.58;81.73
4326;BME280;58429;49.826;10.880;2023-01-28T01:31:09;99281;;;1.59;81.74
4326;BME280;58429;49.826;10.880;2023-01-28T01:32:08;99283;;;1.59;81.74
4326;BME280;58429;49.826;10.880;2023-01-28T01:33:08;99288;;;1.59;81.75
4326;BME280;58429;49.826;10.880;2023-01-28T01:34:08;99282;;;1.57;81.74
4326;BME280;58429;49.826;10.880;2023-01-28T01:35:09;99287;;;1.6;81.74
4326;BME280;58429;49.826;10.880;2023-01-28T01:36:09;99291;;;1.59;81.73
4326;BME280;58429;49.826;10.880;2023-01-28T01:37:09;99286;;;1.57;81.7
4326;BME280;58429;49.826;10.880;2023-01-28T01:38:08;99287;;;1.55;81.7
4326;BME280;58429;49.826;10.880;2023-01-28T01:39:08;99291;;;1.59;81.74
4326;BME280;58429;49.826;10.880;2023-01-28T01:40:09;99289;;;1.57;81.75
4326;BME280;58429;49.826;10.880;2023-01-28T01:41:08;99292;;;1.58;81.71
4326;BME280;58429;49.826;10.880;2023-01-28T01:42:09;99292;;;1.57;81.7
4326;BME280;58429;49.826;10.880;2023-01-28T01:43:13;99294;;;1.56;81.69
4326;BME280;58429;49.826;10.880;2023-01-28T01:44:45;99295;;;1.58;81.66
4326;BME280;58429;49.826;10.880;2023-01-28T01:45:10;99296;;;1.57;81.62
4326;BME280;58429;49.826;10.880;2023-01-28T01:46:08;99296;;;1.57;81.59
4326;BME280;58429;49.826;10.880;2023-01-28T01:47:08;99297;;;1.58;81.55
4326;BME280;58429;49.826;10.880;2023-01-28T01:48:10;99295;;;1.58;81.52
4326;BME280;58429;49.826;10.880;2023-01-28T01:49:12;99302;;;1.59;81.5
4326;BME280;58429;49.826;10.880;2023-01-28T01:50:10;99306;;;1.59;81.52
4326;BME280;58429;49.826;10.880;2023-01-28T01:51:09;99303;;;1.57;81.48
4326;BME280;58429;49.826;10.880;2023-01-28T01:52:09;99302;;;1.59;81.5
4326;BME280;58429;49.826;10.880;2023-01-28T01:53:09;99302;;;1.6;81.49
4326;BME280;58429;49.826;10.880;2023-01-28T01:54:08;99295;;;1.59;81.47
4326;BME280;58429;49.826;10.880;2023-01-28T01:55:10;99298;;;1.57;81.46
4326;BME280;58429;49.826;10.880;2023-01-28T01:56:09;99300;;;1.59;81.5
4326;BME280;58429;49.826;10.880;2023-01-28T01:57:09;99297;;;1.59;81.46
4326;BME280;58429;49.826;10.880;2023-01-28T01:58:09;99298;;;1.57;81.43
4326;BME280;58429;49.826;10.880;2023-01-28T01:59:09;99301;;;1.59;81.42
4326;BME280;58429;49.826;10.880;2023-01-28T02:00:09;99294;;;1.57;81.4
4326;BME280;58429;49.826;10.880;2023-01-28T02:01:09;99302;;;1.58;81.34
4326;BME280;58429;49.826;10.880;2023-01-28T02:02:09;99303;;;1.57;81.33
4326;BME280;58429;49.826;10.880;2023-01-28T02:03:09;99302;;;1.56;81.39
4326;BME280;58429;49.826;10.880;2023-01-28T02:04:09;99307;;;1.55;81.39
4326;BME280;58429;49.826;10.880;2023-01-28T02:05:09;99304;;;1.57;81.38
4326;BME280;58429;49.826;10.880;2023-01-28T02:06:09;99301;;;1.58;81.34
4326;BME280;58429;49.826;10.880;2023-01-28T02:07:10;99299;;;1.55;81.33
4326;BME280;58429;49.826;10.880;2023-01-28T02:08:09;99305;;;1.57;81.33
4326;BME280;58429;49.826;10.880;2023-01-28T02:09:20;99303;;;1.59;81.3
4326;BME280;58429;49.826;10.880;2023-01-28T02:10:09;99299;;;1.63;81.31
4326;BME280;58429;49.826;10.880;2023-01-28T02:11:09;99297;;;1.58;81.31
4326;BME280;58429;49.826;10.880;2023-01-28T02:12:10;99301;;;1.61;81.3
4326;BME280;58429;49.826;10.880;2023-01-28T02:13:09;99301;;;1.62;81.34
4326;BME280;58429;49.826;10.880;2023-01-28T02:14:09;99302;;;1.59;81.31
4326;BME280;58429;49.826;10.880;2023-01-28T02:15:09;99303;;;1.61;81.29
4326;BME280;58429;49.826;10.880;2023-01-28T02:16:09;99304;;;1.6;81.31
4326;BME280;58429;49.826;10.880;2023-01-28T02:17:09;99303;;;1.59;81.32
4326;BME280;58429;49.826;10.880;2023-01-28T02:18:09;99303;;;1.58;81.35
4326;BME280;58429;49.826;10.880;2023-01-28T02:19:09;99306;;;1.6;81.35
4326;BME280;58429;49.826;10.880;2023-01-28T02:20:09;99304;;;1.6;81.34
4326;BME280;58429;49.826;10.880;2023-01-28T02:21:15;99304;;;1.6;81.35
4326;BME280;58429;49.826;10.880;2023-01-28T02:22:12;99305;;;1.6;81.36
4326;BME280;58429;49.826;10.880;2023-01-28T02:23:17;99295;;;1.63;81.38
4326;BME280;58429;49.826;10.880;2023-01-28T02:24:14;99296;;;1.61;81.36
4326;BME280;58429;49.826;10.880;2023-01-28T02:25:12;99301;;;1.61;81.35
4326;BME280;58429;49.826;10.880;2023-01-28T02:26:16;99296;;;1.6;81.37
4326;BME280;58429;49.826;10.880;2023-01-28T02:27:13;99298;;;1.6;81.38
4326;BME280;58429;49.826;10.880;2023-01-28T02:28:12;99300;;;1.64;81.42
4326;BME280;58429;49.826;10.880;2023-01-28T02:29:09;99299;;;1.62;81.39
4326;BME280;58429;49.826;10.880;2023-01-28T02:30:09;99304;;;1.61;81.4
4326;BME280;58429;49.826;10.880;2023-01-28T02:31:10;99297;;;1.61;81.42
4326;BME280;58429;49.826;10.880;2023-01-28T02:32:09;99309;;;1.61;81.41
4326;BME280;58429;49.826;10.880;2023-01-28T02:33:09;99309;;;1.59;81.4
4326;BME280;58429;49.826;10.880;2023-01-28T02:34:10;99310;;;1.6;81.4
4326;BME280;58429;49.826;10.880;2023-01-28T02:35:11;99314;;;1.64;81.43
4326;BME280;58429;49.826;10.880;2023-01-28T02:36:11;99313;;;1.61;81.42
4326;BME280;58429;49.826;10.880;2023-01-28T02:37:10;99312;;;1.61;81.41
4326;BME280;58429;49.826;10.880;2023-01-28T02:38:10;99314;;;1.64;81.45
4326;BME280;58429;49.826;10.880;2023-01-28T02:39:12;99317;;;1.63;81.46
4326;BME280;58429;49.826;10.880;2023-01-28T02:40:10;99316;;;1.62;81.52
4326;BME280;58429;49.826;10.880;2023-01-28T02:41:10;99316;;;1.61;81.52
4326;BME280;58429;49.826;10.880;2023-01-28T02:42:10;99316;;;1.6;81.57
4326;BME280;58429;49.826;10.880;2023-01-28T02:43:09;99310;;;1.6;81.58
4326;BME280;58429;49.826;10.880;2023-01-28T02:44:09;99316;;;1.59;81.51
4326;BME280;58429;49.826;10.880;2023-01-28T02:45:14;99315;;;1.6;81.54
4326;BME280;58429;49.826;10.880;2023-01-28T02:46:11;99315;;;1.61;81.52
4326;BME280;58429;49.826;10.880;2023-01-28T02:47:09;99314;;;1.61;81.51
4326;BME280;58429;49.826;10.880;2023-01-28T02:48:09;99317;;;1.62;81.51
4326;BME280;58429;49.826;10.880;2023-01-28T02:49:09;99318;;;1.62;81.48
4326;BME280;58429;49.826;10.880;2023-01-28T02:50:10;99315;;;1.62;81.46
4326;BME280;58429;49.826;10.880;2023-01-28T02:51:13;99315;;;1.61;81.42
4326;BME280;58429;49.826;10.880;2023-01-28T02:52:14;99317;;;1.59;81.4
4326;BME280;58429;49.826;10.880;2023-01-28T02:53:12;99318;;;1.59;81.45
4326;BME280;58429;49.826;10.880;2023-01-28T02:54:10;99316;;;1.62;81.43
4326;BME280;58429;49.826;10.880;2023-01-28T02:55:11;99318;;;1.6;81.38
4326;BME280;58429;49.826;10.880;2023-01-28T02:56:11;99324;;;1.62;81.35
4326;BME280;58429;49.826;10.880;2023-01-28T02:57:12;99316;;;1.62;81.31
4326;BME280;58429;49.826;10.880;2023-01-28T02:58:10;99318;;;1.61;81.32
4326;BME280;58429;49.826;10.880;2023-01-28T02:59:10;99320;;;1.62;81.26
4326;BME280;58429;49.826;10.880;2023-01-28T03:00:09;99318;;;1.61;81.28
4326;BME280;58429;49.826;10.880;2023-01-28T03:01:09;99322;;;1.64;81.31
4326;BME280;58429;49.826;10.880;2023-01-28T03:02:11;99324;;;1.64;81.21
4326;BME280;58429;49.826;10.880;2023-01-28T03:03:15;99316;;;1.61;81.14
4326;BME280;58429;49.826;10.880;2023-01-28T03:04:09;99326;;;1.62;81.1
4326;BME280;58429;49.826;10.880;2023-01-28T03:05:10;99324;;;1.62;81.08
4326;BME280;58429;49.826;10.880;2023-01-28T03:06:09;99320;;;1.62;81.01
4326;BME280;58429;49.826;10.880;2023-01-28T03:07:09;99325;;;1.58;80.9
4326;BME280;58429;49.826;10.880;2023-01-28T03:08:09;99319;;;1.6;80.89
4326;BME280;58429;49.826;10.880;2023-01-28T03:09:09;99317;;;1.57;80.9
4326;BME280;58429;49.826;10.880;2023-01-28T03:10:10;99317;;;1.59;80.91
4326;BME280;58429;49.826;10.880;2023-01-28T03:11:09;99318;;;1.61;80.89
4326;BME280;58429;49.826;10.880;2023-01-28T03:12:09;99317;;;1.6;80.92
4326;BME280;58429;49.826;10.880;2023-01-28T03:13:09;99321;;;1.6;80.93
4326;BME280;58429;49.826;10.880;2023-01-28T03:14:09;99322;;;1.62;80.91
4326;BME280;58429;49.826;10.880;2023-01-28T03:15:09;99322;;;1.61;80.88
4326;BME280;58429;49.826;10.880;2023-01-28T03:16:09;99325;;;1.6;80.89
4326;BME280;58429;49.826;10.880;2023-01-28T03:17:11;99322;;;1.61;80.86
4326;BME280;58429;49.826;10.880;2023-01-28T03:18:09;99323;;;1.6;80.89
4326;BME280;58429;49.826;10.880;2023-01-28T03:19:09;99326;;;1.59;80.92
4326;BME280;58429;49.826;10.880;2023-01-28T03:20:09;99327;;;1.61;80.94
4326;BME280;58429;49.826;10.880;2023-01-28T03:21:09;99327;;;1.6;80.93
4326;BME280;58429;49.826;10.880;2023-01-28T03:22:09;99326;;;1.61;80.95
4326;BME280;58429;49.826;10.880;2023-01-28T03:23:09;99331;;;1.62;80.96
4326;BME280;58429;49.826;10.880;2023-01-28T03:24:10;99330;;;1.63;80.99
4326;BME280;58429;49.826;10.880;2023-01-28T03:25:09;99325;;;1.62;81.01
4326;BME280;58429;49.826;10.880;2023-01-28T03:26:09;99327;;;1.64;81
4326;BME280;58429;49.826;10.880;2023-01-28T03:27:09;99328;;;1.59;81.01
4326;BME280;58429;49.826;10.880;2023-01-28T03:28:09;99326;;;1.63;81.01
4326;BME280;58429;49.826;10.880;2023-01-28T03:29:09;99331;;;1.62;81.02
4326;BME280;58429;49.826;10.880;2023-01-28T03:30:10;99334;;;1.62;81.02
4326;BME280;58429;49.826;10.880;2023-01-28T03:31:09;99333;;;1.6;81.02
4326;BME280;58429;49.826;10.880;2023-01-28T03:32:09;99331;;;1.59;80.99
4326;BME280;58429;49.826;10.880;2023-01-28T03:33:09;99331;;;1.59;81.02
4326;BME280;58429;49.826;10.880;2023-01-28T03:34:09;99342;;;1.62;81.04
4326;BME280;58429;49.826;10.880;2023-01-28T03:35:09;99338;;;1.59;81.03
4326;BME280;58429;49.826;10.880;2023-01-28T03:36:09;99337;;;1.6;81.03
4326;BME280;58429;49.826;10.880;2023-01-28T03:37:09;99339;;;1.59;81.03
4326;BME280;58429;49.826;10.880;2023-01-28T03:38:09;99341;;;1.58;81.01
4326;BME280;58429;49.826;10.880;2023-01-28T03:39:09;99344;;;1.61;81.02
4326;BME280;58429;49.826;10.880;2023-01-28T03:40:10;99339;;;1.61;81.05
4326;BME280;58429;49.826;10.880;2023-01-28T03:41:09;99342;;;1.58;81.03
4326;BME280;58429;49.826;10.880;2023-01-28T03:42:10;99332;;;1.59;81.04
4326;BME280;58429;49.826;10.880;2023-01-28T03:43:09;99330;;;1.62;81.05
4326;BME280;58429;49.826;10.880;2023-01-28T03:44:09;99333;;;1.65;81.12
4326;BME280;58429;49.826;10.880;2023-01-28T03:45:09;99333;;;1.61;81.11
4326;BME280;58429;49.826;10.880;2023-01-28T03:46:09;99334;;;1.63;81.11
4326;BME280;58429;49.826;10.880;2023-01-28T03:47:09;99337;;;1.63;81.12
4326;BME280;58429;49.826;10.880;2023-01-28T03:48:09;99332;;;1.59;81.1
4326;BME280;58429;49.826;10.880;2023-01-28T03:49:09;99335;;;1.6;81.13
4326;BME280;58429;49.826;10.880;2023-01-28T03:50:09;99337;;;1.63;81.14
4326;BME280;58429;49.826;10.880;2023-01-28T03:51:09;99341;;;1.62;81.14
4326;BME280;58429;49.826;10.880;2023-01-28T03:52:09;99342;;;1.64;81.15
4326;BME280;58429;49.826;10.880;2023-01-28T03:53:09;99344;;;1.63;81.14
4326;BME280;58429;49.826;10.880;2023-01-28T03:54:09;99345;;;1.62;81.2
4326;BME280;58429;49.826;10.880;2023-01-28T03:55:09;99342;;;1.62;81.21
4326;BME280;58429;49.826;10.880;2023-01-28T03:56:09;99346;;;1.62;81.23
4326;BME280;58429;49.826;10.880;2023-01-28T03:57:09;99351;;;1.64;81.26
4326;BME280;58429;49.826;10.880;2023-01-28T03:58:09;99350;;;1.67;81.29
4326;BME280;58429;49.826;10.880;2023-01-28T03:59:09;99349;;;1.63;81.27
4326;BME280;58429;49.826;10.880;2023-01-28T04:00:09;99350;;;1.63;81.3
4326;BME280;58429;49.826;10.880;2023-01-28T04:01:09;99358;;;1.62;81.3
4326;BME280;58429;49.826;10.880;2023-01-28T04:02:09;99358;;;1.62;81.32
4326;BME280;58429;49.826;10.880;2023-01-28T04:03:09;99360;;;1.61;81.31
4326;BME280;58429;49.826;10.880;2023-01-28T04:04:09;99358;;;1.66;81.36
4326;BME280;58429;49.826;10.880;2023-01-28T04:05:09;99364;;;1.62;81.35
4326;BME280;58429;49.826;10.880;2023-01-28T04:06:09;99358;;;1.65;81.36
4326;BME280;58429;49.826;10.880;2023-01-28T04:07:09;99359;;;1.63;81.39
4326;BME280;58429;49.826;10.880;2023-01-28T04:08:09;99359;;;1.59;81.39
4326;BME280;58429;49.826;10.880;2023-01-28T04:09:09;99359;;;1.64;81.4
4326;BME280;58429;49.826;10.880;2023-01-28T04:10:09;99354;;;1.62;81.41
4326;BME280;58429;49.826;10.880;2023-01-28T04:11:09;99360;;;1.64;81.34
4326;BME280;58429;49.826;10.880;2023-01-28T04:12:09;99360;;;1.61;81.3
4326;BME280;58429;49.826;10.880;2023-01-28T04:13:09;99365;;;1.62;81.32
4326;BME280;58429;49.826;10.880;2023-01-28T04:14:09;99358;;;1.6;81.35
4326;BME280;58429;49.826;10.880;2023-01-28T04:15:09;99356;;;1.61;81.34
4326;BME280;58429;49.826;10.880;2023-01-28T04:16:09;99363;;;1.61;81.31
4326;BME280;58429;49.826;10.880;2023-01-28T04:17:09;99365;;;1.58;81.31
4326;BME280;58429;49.826;10.880;2023-01-28T04:18:09;99361;;;1.61;81.32
4326;BME280;58429;49.826;10.880;2023-01-28T04:19:09;99359;;;1.62;81.34
4326;BME280;58429;49.826;10.880;2023-01-28T04:20:09;99358;;;1.61;81.32
4326;BME280;58429;49.826;10.880;2023-01-28T04:21:09;99365;;;1.59;81.32
4326;BME280;58429;49.826;10.880;2023-01-28T04:22:09;99362;;;1.61;81.31
4326;BME280;58429;49.826;10.880;2023-01-28T04:23:09;99371;;;1.62;81.32
4326;BME280;58429;49.826;10.880;2023-01-28T04:24:09;99367;;;1.62;81.32
4326;BME280;58429;49.826;10.880;2023-01-28T04:25:09;99364;;;1.62;81.32
4326;BME280;58429;49.826;10.880;2023-01-28T04:26:09;99368;;;1.64;81.32
4326;BME280;58429;49.826;10.880;2023-01-28T04:27:09;99362;;;1.62;81.32
4326;BME280;58429;49.826;10.880;2023-01-28T04:28:09;99360;;;1.62;81.33
4326;BME280;58429;49.826;10.880;2023-01-28T04:29:09;99361;;;1.62;81.33
4326;BME280;58429;49.826;10.880;2023-01-28T04:30:09;99364;;;1.61;81.33
4326;BME280;58429;49.826;10.880;2023-01-28T04:31:09;99361;;;1.63;81.31
4326;BME280;58429;49.826;10.880;2023-01-28T04:32:09;99363;;;1.6;81.32
4326;BME280;58429;49.826;10.880;2023-01-28T04:33:09;99359;;;1.63;81.31
4326;BME280;58429;49.826;10.880;2023-01-28T04:34:09;99362;;;1.61;81.3
4326;BME280;58429;49.826;10.880;2023-01-28T04:35:09;99366;;;1.6;81.28
4326;BME280;58429;49.826;10.880;2023-01-28T04:36:09;99361;;;1.64;81.34
4326;BME280;58429;49.826;10.880;2023-01-28T04:37:09;99359;;;1.61;81.3
4326;BME280;58429;49.826;10.880;2023-01-28T04:38:09;99361;;;1.61;81.33
4326;BME280;58429;49.826;10.880;2023-01-28T04:39:09;99361;;;1.61;81.35
4326;BME280;58429;49.826;10.880;2023-01-28T04:40:09;99368;;;1.6;81.35
4326;BME280;58429;49.826;10.880;2023-01-28T04:41:09;99363;;;1.66;81.36
4326;BME280;58429;49.826;10.880;2023-01-28T04:42:09;99366;;;1.65;81.38
4326;BME280;58429;49.826;10.880;2023-01-28T04:43:09;99362;;;1.66;81.38
4326;BME280;58429;49.826;10.880;2023-01-28T04:44:09;99369;;;1.64;81.37
4326;BME280;58429;49.826;10.880;2023-01-28T04:45:09;99370;;;1.64;81.38
4326;BME280;58429;49.826;10.880;2023-01-28T04:46:09;99361;;;1.63;81.4
4326;BME280;58429;49.826;10.880;2023-01-28T04:47:09;99369;;;1.66;81.39
4326;BME280;58429;49.826;10.880;2023-01-28T04:48:09;99369;;;1.67;81.41
4326;BME280;58429;49.826;10.880;2023-01-28T04:49:09;99366;;;1.63;81.39
4326;BME280;58429;49.826;10.880;2023-01-28T04:50:09;99365;;;1.66;81.39
4326;BME280;58429;49.826;10.880;2023-01-28T04:51:09;99374;;;1.68;81.39
4326;BME280;58429;49.826;10.880;2023-01-28T04:52:09;99365;;;1.68;81.37
4326;BME280;58429;49.826;10.880;2023-01-28T04:53:09;99364;;;1.65;81.35
4326;BME280;58429;49.826;10.880;2023-01-28T04:54:09;99371;;;1.68;81.37
4326;BME280;58429;49.826;10.880;2023-01-28T04:55:09;99375;;;1.66;81.37
4326;BME280;58429;49.826;10.880;2023-01-28T04:56:09;99370;;;1.64;81.35
4326;BME280;58429;49.826;10.880;2023-01-28T04:57:09;99375;;;1.68;81.33
4326;BME280;58429;49.826;10.880;2023-01-28T04:58:09;99377;;;1.7;81.33
4326;BME280;58429;49.826;10.880;2023-01-28T04:59:09;99367;;;1.67;81.32
4326;BME280;58429;49.826;10.880;2023-01-28T05:00:09;99367;;;1.68;81.36
4326;BME280;58429;49.826;10.880;2023-01-28T05:01:09;99372;;;1.67;81.37
4326;BME280;58429;49.826;10.880;2023-01-28T05:02:09;99368;;;1.64;81.39
4326;BME280;58429;49.826;10.880;2023-01-28T05:03:09;99376;;;1.68;81.41
4326;BME280;58429;49.826;10.880;2023-01-28T05:04:09;99372;;;1.67;81.44
4326;BME280;58429;49.826;10.880;2023-01-28T05:05:09;99370;;;1.64;81.45
4326;BME280;58429;49.826;10.880;2023-01-28T05:06:09;99377;;;1.64;81.47
4326;BME280;58429;49.826;10.880;2023-01-28T05:07:09;99369;;;1.66;81.54
4326;BME280;58429;49.826;10.880;2023-01-28T05:08:09;99373;;;1.64;81.58
4326;BME280;58429;49.826;10.880;2023-01-28T05:09:09;99369;;;1.67;81.65
4326;BME280;58429;49.826;10.880;2023-01-28T05:10:09;99378;;;1.66;81.67
4326;BME280;58429;49.826;10.880;2023-01-28T05:11:09;99371;;;1.66;81.78
4326;BME280;58429;49.826;10.880;2023-01-28T05:12:09;99375;;;1.62;81.83
4326;BME280;58429;49.826;10.880;2023-01-28T05:13:09;99372;;;1.62;81.88
4326;BME280;58429;49.826;10.880;2023-01-28T05:14:09;99376;;;1.62;81.93
4326;BME280;58429;49.826;10.880;2023-01-28T05:15:09;99379;;;1.64;81.97
4326;BME280;58429;49.826;10.880;2023-01-28T05:16:09;99376;;;1.62;82.04
4326;BME280;58429;49.826;10.880;2023-01-28T05:17:09;99374;;;1.62;82.06
4326;BME280;58429;49.826;10.880;2023-01-28T05:18:09;99377;;;1.65;82.09
4326;BME280;58429;49.826;10.880;2023-01-28T05:19:09;99376;;;1.59;82.08
4326;BME280;58429;49.826;10.880;2023-01-28T05:20:09;99377;;;1.62;82.13
4326;BME280;58429;49.826;10.880;2023-01-28T05:21:09;99378;;;1.63;82.15
4326;BME280;58429;49.826;10.880;2023-01-28T05:22:09;99378;;;1.62;82.24
4326;BME280;58429;49.826;10.880;2023-01-28T05:23:09;99380;;;1.63;82.27
4326;BME280;58429;49.826;10.880;2023-01-28T05:24:09;99376;;;1.61;82.36
4326;BME280;58429;49.826;10.880;2023-01-28T05:25:09;99374;;;1.61;82.42
4326;BME280;58429;49.826;10.880;2023-01-28T05:26:09;99383;;;1.59;82.44
4326;BME280;58429;49.826;10.880;2023-01-28T05:27:09;99379;;;1.59;82.49
4326;BME280;58429;49.826;10.880;2023-01-28T05:28:09;99381;;;1.59;82.54
4326;BME280;58429;49.826;10.880;2023-01-28T05:29:09;99385;;;1.57;82.57
4326;BME280;58429;49.826;10.880;2023-01-28T05:30:09;99384;;;1.58;82.61
4326;BME280;58429;49.826;10.880;2023-01-28T05:31:09;99383;;;1.59;82.63
4326;BME280;58429;49.826;10.880;2023-01-28T05:32:09;99379;;;1.59;82.67
4326;BME280;58429;49.826;10.880;2023-01-28T05:33:09;99381;;;1.57;82.64
4326;BME280;58429;49.826;10.880;2023-01-28T05:34:09;99393;;;1.57;82.63
4326;BME280;58429;49.826;10.880;2023-01-28T05:35:09;99386;;;1.58;82.66
4326;BME280;58429;49.826;10.880;2023-01-28T05:36:09;99386;;;1.59;82.67